createdAt,value
2023-01-10T00:00:05.951Z,55.86
2023-01-10T00:02:32.311Z,56.13
2023-01-10T00:04:58.742Z,56.06
2023-01-10T00:07:25.097Z,56.22
2023-01-10T00:09:51.442Z,56.15
2023-01-10T00:12:36.420Z,55.91
2023-01-10T00:15:02.756Z,55.89
2023-01-10T00:17:29.096Z,55.99
2023-01-10T00:19:55.429Z,56.05
2023-01-10T00:22:24.987Z,55.88
2023-01-10T00:24:51.461Z,55.57
2023-01-10T00:27:22.566Z,55.72
2023-01-10T00:29:51.168Z,55.84
2023-01-10T00:32:17.549Z,55.90
2023-01-10T00:34:43.892Z,55.77
2023-01-10T00:37:10.230Z,55.66
2023-01-10T00:39:36.578Z,55.85
2023-01-10T00:42:21.632Z,55.66
2023-01-10T00:44:47.968Z,55.88
2023-01-10T00:47:14.352Z,55.88
2023-01-10T00:49:40.964Z,55.81
2023-01-10T00:52:07.281Z,55.85
2023-01-10T00:54:33.671Z,55.60
2023-01-10T00:57:00.030Z,55.74
2023-01-10T00:59:26.365Z,55.73
2023-01-10T01:01:52.789Z,55.58
2023-01-10T01:04:19.196Z,55.58
2023-01-10T01:06:46.987Z,55.54
2023-01-10T01:09:13.555Z,55.53
2023-01-10T01:11:39.937Z,55.59
2023-01-10T01:14:06.264Z,55.53
2023-01-10T01:16:32.581Z,55.62
2023-01-10T01:18:58.914Z,55.68
2023-01-10T01:21:28.244Z,55.60
2023-01-10T01:23:56.770Z,55.40
2023-01-10T01:26:23.659Z,55.42
2023-01-10T01:28:50.086Z,55.45
2023-01-10T01:31:16.434Z,55.38
2023-01-10T01:33:45.801Z,55.44
2023-01-10T01:36:12.329Z,55.48
2023-01-10T01:38:38.786Z,55.37
2023-01-10T01:41:25.128Z,55.51
2023-01-10T01:44:23.910Z,55.52
2023-01-10T01:46:50.793Z,55.26
2023-01-10T01:49:19.603Z,55.38
2023-01-10T01:51:46.813Z,55.18
2023-01-10T01:54:13.170Z,55.42
2023-01-10T01:56:42.750Z,55.41
2023-01-10T01:59:13.122Z,55.27
2023-01-10T02:01:39.956Z,55.44
2023-01-10T02:04:11.127Z,55.20
2023-01-10T02:06:37.528Z,55.19
2023-01-10T02:09:07.816Z,55.15
2023-01-10T02:11:34.935Z,55.29
2023-01-10T02:14:01.296Z,55.09
2023-01-10T02:16:27.645Z,55.14
2023-01-10T02:19:18.831Z,55.15
2023-01-10T02:21:56.792Z,55.23
2023-01-10T02:24:33.830Z,55.27
2023-01-10T02:27:09.650Z,55.28
2023-01-10T02:29:46.535Z,55.29
2023-01-10T02:32:18.782Z,55.29
2023-01-10T02:34:53.072Z,55.25
2023-01-10T02:37:20.167Z,55.28
2023-01-10T02:40:00.263Z,55.01
2023-01-10T02:42:30.337Z,55.15
2023-01-10T02:45:15.398Z,55.06
2023-01-10T02:47:41.777Z,55.22
2023-01-10T02:50:37.525Z,55.21
2023-01-10T02:53:04.860Z,55.21
2023-01-10T02:55:34.492Z,55.14
2023-01-10T02:58:19.711Z,55.22
2023-01-10T03:00:48.075Z,55.25
2023-01-10T03:03:17.084Z,55.16
2023-01-10T03:05:55.371Z,55.19
2023-01-10T03:08:26.671Z,55.14
2023-01-10T03:11:08.954Z,55.18
2023-01-10T03:13:52.333Z,55.27
2023-01-10T03:16:19.380Z,55.08
2023-01-10T03:36:02.303Z,55.32
2023-01-10T03:38:34.605Z,56.30
2023-01-10T03:41:04.556Z,56.14
2023-01-10T03:43:59.654Z,55.48
2023-01-10T03:46:40.373Z,55.58
2023-01-10T03:49:06.715Z,55.38
2023-01-10T03:51:33.029Z,55.52
2023-01-10T03:54:00.029Z,55.38
2023-01-10T03:56:26.546Z,55.43
2023-01-10T03:58:52.868Z,55.70
2023-01-10T04:01:19.315Z,55.47
2023-01-10T04:03:45.735Z,55.92
2023-01-10T04:06:12.070Z,56.17
2023-01-10T04:08:38.400Z,56.07
2023-01-10T04:11:04.731Z,55.98
2023-01-10T04:13:31.056Z,56.10
2023-01-10T04:15:59.239Z,56.29
2023-01-10T04:18:25.590Z,56.57
2023-01-10T04:20:52.327Z,55.98
2023-01-10T04:23:18.714Z,56.25
2023-01-10T04:25:46.742Z,56.18
2023-01-10T04:28:13.066Z,56.55
2023-01-10T04:30:39.394Z,56.84
2023-01-10T04:33:07.216Z,56.47
2023-01-10T04:35:33.551Z,56.42
2023-01-10T04:38:00.701Z,56.17
2023-01-10T04:40:27.024Z,56.48
2023-01-10T04:42:53.411Z,56.65
2023-01-10T04:45:21.745Z,56.76
2023-01-10T04:47:51.554Z,56.98
2023-01-10T04:50:17.941Z,56.82
2023-01-10T04:52:44.272Z,57.19
2023-01-10T04:55:10.599Z,57.12
2023-01-10T04:57:36.961Z,56.95
2023-01-10T05:00:03.523Z,56.44
2023-01-10T05:02:29.995Z,56.37
2023-01-10T05:04:56.395Z,56.40
2023-01-10T05:07:22.733Z,56.60
2023-01-10T05:09:49.058Z,56.87
2023-01-10T05:12:15.443Z,57.04
2023-01-10T05:14:41.759Z,57.15
2023-01-10T05:17:08.089Z,57.61
2023-01-10T05:19:34.384Z,57.63
2023-01-10T05:22:00.706Z,57.56
2023-01-10T05:24:27.030Z,57.63
2023-01-10T05:26:53.347Z,57.47
2023-01-10T05:29:19.663Z,57.28
2023-01-10T05:31:46.037Z,57.47
2023-01-10T05:34:12.824Z,57.42
2023-01-10T05:36:39.170Z,57.55
2023-01-10T05:39:05.496Z,57.27
2023-01-10T05:41:31.820Z,57.50
2023-01-10T05:43:58.128Z,57.49
2023-01-10T05:46:24.453Z,57.67
2023-01-10T05:48:51.891Z,57.15
2023-01-10T05:51:18.209Z,57.26
2023-01-10T05:53:44.533Z,57.23
2023-01-10T05:56:10.842Z,57.44
2023-01-10T05:58:37.215Z,57.08
2023-01-10T06:01:03.591Z,57.38
2023-01-10T06:03:29.979Z,57.18
2023-01-10T06:05:56.696Z,57.36
2023-01-10T06:08:23.078Z,57.29
2023-01-10T06:10:49.464Z,57.14
2023-01-10T06:13:15.810Z,57.98
2023-01-10T06:15:42.219Z,57.60
2023-01-10T06:18:11.177Z,58.45
2023-01-10T06:20:38.607Z,58.61
2023-01-10T06:23:04.954Z,58.20
2023-01-10T06:25:31.911Z,59.04
2023-01-10T06:27:58.267Z,58.64
2023-01-10T06:30:24.682Z,58.95
2023-01-10T06:32:51.027Z,59.34
2023-01-10T06:35:20.206Z,59.04
2023-01-10T06:37:46.550Z,58.76
2023-01-10T06:40:12.890Z,58.09
2023-01-10T06:42:39.987Z,58.39
2023-01-10T06:45:06.405Z,58.65
2023-01-10T06:47:32.731Z,58.96
2023-01-10T06:49:59.046Z,58.87
2023-01-10T06:52:25.371Z,58.79
2023-01-10T06:54:53.053Z,59.37
2023-01-10T06:57:19.732Z,58.96
2023-01-10T06:59:46.078Z,58.08
2023-01-10T07:02:12.496Z,58.26
2023-01-10T07:04:38.842Z,58.72
2023-01-10T07:07:05.181Z,58.75
2023-01-10T07:09:31.497Z,58.69
2023-01-10T07:11:57.820Z,58.21
2023-01-10T07:14:24.517Z,58.01
2023-01-10T07:16:50.885Z,58.01
2023-01-10T07:19:18.142Z,57.61
2023-01-10T07:21:44.745Z,57.55
2023-01-10T07:24:11.069Z,57.46
2023-01-10T07:26:37.396Z,57.65
2023-01-10T07:29:03.706Z,57.49
2023-01-10T07:31:30.096Z,57.29
2023-01-10T07:33:56.456Z,57.42
2023-01-10T07:36:22.814Z,57.97
2023-01-10T07:38:55.022Z,57.44
2023-01-10T07:41:21.352Z,56.65
2023-01-10T07:43:48.783Z,56.02
2023-01-10T07:46:15.223Z,54.50
2023-01-10T07:48:41.992Z,53.85
2023-01-10T07:51:08.379Z,53.79
2023-01-10T07:53:34.725Z,53.26
2023-01-10T07:56:01.484Z,52.55
2023-01-10T07:58:30.789Z,52.77
2023-01-10T08:00:57.836Z,52.24
2023-01-10T08:03:24.915Z,51.90
2023-01-10T08:05:57.017Z,51.63
2023-01-10T08:08:23.362Z,51.31
2023-01-10T08:10:49.705Z,49.88
2023-01-10T08:13:19.073Z,50.50
2023-01-10T08:15:47.187Z,49.34
2023-01-10T08:18:13.722Z,49.48
2023-01-10T08:20:40.402Z,48.21
2023-01-10T08:23:06.725Z,48.02
2023-01-10T08:25:33.071Z,47.95
2023-01-10T08:28:08.882Z,49.84
2023-01-10T08:30:35.188Z,49.65
2023-01-10T08:33:02.091Z,49.83
2023-01-10T08:35:28.429Z,50.38
2023-01-10T08:37:57.979Z,50.63
2023-01-10T08:40:24.336Z,50.83
2023-01-10T08:42:56.262Z,51.14
2023-01-10T08:45:22.588Z,51.22
2023-01-10T08:47:49.027Z,51.61
2023-01-10T08:50:15.420Z,51.54
2023-01-10T08:52:41.765Z,51.43
2023-01-10T08:55:08.190Z,51.94
2023-01-10T08:57:34.528Z,52.68
2023-01-10T09:00:00.858Z,52.85
2023-01-10T09:02:27.297Z,53.06
2023-01-10T09:04:53.704Z,53.03
2023-01-10T09:07:20.047Z,52.95
2023-01-10T09:09:46.371Z,52.90
2023-01-10T09:12:31.157Z,52.73
2023-01-10T09:14:57.486Z,51.38
2023-01-10T09:17:23.834Z,52.08
2023-01-10T09:19:50.155Z,52.25
2023-01-10T09:22:19.186Z,53.09
2023-01-10T09:24:48.287Z,53.41
2023-01-10T09:27:14.614Z,53.33
2023-01-10T09:29:40.937Z,51.97
2023-01-10T09:32:35.550Z,52.58
2023-01-10T09:35:01.969Z,52.58
2023-01-10T09:37:28.317Z,53.08
2023-01-10T09:39:54.659Z,53.05
2023-01-10T09:42:20.920Z,53.25
2023-01-10T09:44:56.387Z,53.47
2023-01-10T09:47:34.982Z,53.52
2023-01-10T09:50:38.395Z,53.41
2023-01-10T09:53:20.782Z,53.62
2023-01-10T09:55:48.992Z,53.80
2023-01-10T09:58:16.619Z,53.71
2023-01-10T10:00:44.114Z,54.25
2023-01-10T10:03:16.673Z,54.18
2023-01-10T10:05:43.518Z,54.10
2023-01-10T10:08:35.443Z,53.91
2023-01-10T10:11:15.094Z,53.91
2023-01-10T10:13:50.271Z,53.71
2023-01-10T10:16:35.201Z,54.07
2023-01-10T10:19:04.502Z,53.79
2023-01-10T10:21:34.543Z,50.93
2023-01-10T10:24:16.582Z,47.83
2023-01-10T10:26:49.313Z,46.66
2023-01-10T10:29:30.470Z,47.18
2023-01-10T10:32:01.961Z,48.03
2023-01-10T10:34:36.364Z,49.61
2023-01-10T10:37:05.510Z,48.46
2023-01-10T10:39:34.712Z,49.51
2023-01-10T10:42:01.051Z,50.24
2023-01-10T10:44:32.514Z,50.43
2023-01-10T10:46:58.938Z,50.54
2023-01-10T10:49:38.952Z,51.14
2023-01-10T10:52:09.212Z,52.07
2023-01-10T10:54:36.919Z,52.41
2023-01-10T10:57:03.259Z,52.61
2023-01-10T10:59:29.608Z,52.75
2023-01-10T11:01:55.999Z,52.11
2023-01-10T11:04:22.858Z,52.71
2023-01-10T11:06:49.355Z,52.53
2023-01-10T11:09:17.642Z,52.65
2023-01-10T11:11:44.981Z,52.45
2023-01-10T11:14:11.286Z,53.05
2023-01-10T11:16:39.591Z,53.01
2023-01-10T11:19:18.179Z,52.90
2023-01-10T11:21:49.333Z,52.72
2023-01-10T11:24:23.057Z,52.95
2023-01-10T11:26:49.432Z,53.62
2023-01-10T11:29:15.670Z,54.08
2023-01-10T11:31:42.113Z,53.97
2023-01-10T11:34:17.044Z,54.20
2023-01-10T11:36:53.275Z,53.99
2023-01-10T11:39:19.598Z,53.87
2023-01-10T11:41:45.942Z,53.74
2023-01-10T11:44:28.216Z,53.91
2023-01-10T11:46:55.638Z,53.62
2023-01-10T11:49:36.489Z,53.63
2023-01-10T11:52:03.818Z,53.99
2023-01-10T11:54:30.230Z,53.89
2023-01-10T11:57:01.502Z,53.97
2023-01-10T11:59:28.080Z,54.10
2023-01-10T12:01:56.207Z,54.15
2023-01-10T12:04:22.757Z,54.34
2023-01-10T12:06:49.897Z,54.31
2023-01-10T12:09:37.461Z,54.18
2023-01-10T12:12:24.259Z,54.04
2023-01-10T12:14:50.731Z,54.22
2023-01-10T12:17:20.252Z,54.19
2023-01-10T12:19:46.596Z,54.19
2023-01-10T12:22:13.914Z,54.08
2023-01-10T12:24:40.816Z,53.92
2023-01-10T12:27:07.198Z,54.21
2023-01-10T12:29:41.010Z,54.02
2023-01-10T12:32:13.375Z,54.37
2023-01-10T12:34:44.368Z,54.44
2023-01-10T12:37:16.473Z,54.46
2023-01-10T12:39:50.458Z,54.61
2023-01-10T12:42:42.927Z,54.43
2023-01-10T12:45:12.022Z,55.11
2023-01-10T12:47:43.026Z,55.05
2023-01-10T12:50:13.869Z,54.99
2023-01-10T12:52:48.511Z,54.79
2023-01-10T12:55:21.003Z,54.64
2023-01-10T12:57:51.587Z,54.73
2023-01-10T13:00:20.782Z,54.71
2023-01-10T13:02:47.192Z,54.82
2023-01-10T13:05:20.399Z,55.07
2023-01-10T13:07:46.755Z,55.19
2023-01-10T13:10:15.844Z,54.92
2023-01-10T13:12:42.284Z,54.89
2023-01-10T13:15:14.735Z,55.61
2023-01-10T13:17:42.679Z,55.34
2023-01-10T13:20:21.297Z,55.01
2023-01-10T13:22:48.190Z,55.23
2023-01-10T13:25:21.441Z,55.22
2023-01-10T13:27:47.783Z,54.98
2023-01-10T13:30:31.300Z,55.14
2023-01-10T13:33:02.042Z,55.25
2023-01-10T13:35:43.006Z,55.48
2023-01-10T13:38:16.512Z,55.19
2023-01-10T13:40:45.833Z,55.09
2023-01-10T13:43:34.489Z,54.87
2023-01-10T13:46:16.389Z,55.29
2023-01-10T13:49:03.523Z,55.00
2023-01-10T13:51:30.232Z,55.44
2023-01-10T13:54:00.099Z,55.44
2023-01-10T13:56:32.262Z,55.40
2023-01-10T13:59:17.473Z,55.41
2023-01-10T14:02:02.963Z,55.63
2023-01-10T14:04:36.432Z,55.75
2023-01-10T14:07:03.500Z,55.64
2023-01-10T14:09:31.309Z,55.84
2023-01-10T14:11:58.131Z,55.78
2023-01-10T14:14:25.657Z,55.66
2023-01-10T14:16:52.405Z,55.90
2023-01-10T14:19:23.843Z,55.41
2023-01-10T14:21:51.944Z,55.70
2023-01-10T14:24:22.003Z,55.69
2023-01-10T14:26:48.332Z,55.61
2023-01-10T14:29:15.714Z,55.60
2023-01-10T14:31:46.988Z,55.43
2023-01-10T14:34:22.089Z,55.31
2023-01-10T14:36:57.097Z,55.77
2023-01-10T14:39:23.421Z,54.48
2023-01-10T14:41:50.038Z,52.16
2023-01-10T14:44:32.814Z,50.81
2023-01-10T14:47:02.837Z,53.03
2023-01-10T14:49:29.911Z,53.32
2023-01-10T14:52:10.163Z,54.16
2023-01-10T14:54:36.493Z,54.41
2023-01-10T14:57:02.855Z,54.46
2023-01-10T14:59:34.075Z,54.57
2023-01-10T15:02:01.494Z,54.78
2023-01-10T15:04:29.286Z,54.70
2023-01-10T15:07:11.732Z,54.73
2023-01-10T15:09:38.199Z,55.07
2023-01-10T15:12:05.292Z,55.05
2023-01-10T15:14:31.779Z,55.08
2023-01-10T15:17:02.015Z,54.87
2023-01-10T15:19:29.651Z,55.09
2023-01-10T15:21:55.978Z,54.86
2023-01-10T15:24:28.906Z,54.02
2023-01-10T15:26:55.393Z,53.24
2023-01-10T15:29:22.376Z,53.51
2023-01-10T15:31:48.778Z,53.19
2023-01-10T15:34:15.973Z,53.06
2023-01-10T15:36:46.802Z,52.91
2023-01-10T15:39:23.014Z,52.78
2023-01-10T15:41:49.567Z,53.28
2023-01-10T15:44:34.566Z,52.75
2023-01-10T15:47:00.954Z,52.40
2023-01-10T15:49:28.076Z,52.44
2023-01-10T15:51:54.429Z,52.62
2023-01-10T15:54:21.590Z,52.65
2023-01-10T15:56:48.340Z,52.74
2023-01-10T15:59:21.576Z,52.54
2023-01-10T16:01:54.781Z,52.45
2023-01-10T16:04:21.255Z,52.48
2023-01-10T16:06:47.598Z,52.44
2023-01-10T16:09:20.535Z,52.54
2023-01-10T16:12:09.336Z,52.21
2023-01-10T16:14:35.711Z,51.95
2023-01-10T16:17:02.478Z,52.03
2023-01-10T16:19:31.982Z,52.31
2023-01-10T16:21:58.418Z,50.48
2023-01-10T16:24:31.654Z,51.00
2023-01-10T16:26:58.137Z,51.00
2023-01-10T16:29:24.574Z,51.33
2023-01-10T16:31:52.356Z,51.52
2023-01-10T16:34:18.761Z,51.69
2023-01-10T16:36:45.109Z,51.57
2023-01-10T16:39:15.294Z,51.71
2023-01-10T16:42:03.519Z,51.55
2023-01-10T16:44:29.997Z,51.44
2023-01-10T16:46:56.348Z,51.86
2023-01-10T16:49:22.715Z,51.88
2023-01-10T16:51:49.134Z,52.02
2023-01-10T16:54:16.062Z,51.84
2023-01-10T16:56:42.940Z,51.90
2023-01-10T16:59:09.294Z,52.04
2023-01-10T17:01:39.364Z,51.91
2023-01-10T17:04:06.613Z,52.05
2023-01-10T17:06:33.135Z,52.20
2023-01-10T17:08:59.480Z,52.22
2023-01-10T17:11:26.658Z,51.93
2023-01-10T17:13:52.995Z,51.89
2023-01-10T17:16:19.849Z,51.77
2023-01-10T17:18:46.419Z,52.20
2023-01-10T17:21:16.426Z,52.36
2023-01-10T17:23:42.791Z,52.54
2023-01-10T17:26:09.851Z,52.49
2023-01-10T17:28:36.568Z,52.01
2023-01-10T17:31:03.211Z,52.36
2023-01-10T17:33:29.539Z,52.02
2023-01-10T17:35:56.042Z,52.36
2023-01-10T17:38:22.763Z,52.35
2023-01-10T17:40:49.095Z,50.91
2023-01-10T17:43:15.595Z,52.38
2023-01-10T17:45:42.610Z,52.48
2023-01-10T17:48:09.129Z,52.31
2023-01-10T17:50:35.690Z,51.72
2023-01-10T17:53:02.073Z,51.60
2023-01-10T17:55:28.400Z,51.44
2023-01-10T17:57:55.082Z,51.19
2023-01-10T18:00:21.430Z,51.61
2023-01-10T18:02:47.805Z,51.94
2023-01-10T18:05:14.147Z,52.18
2023-01-10T18:07:40.631Z,52.30
2023-01-10T18:10:08.771Z,51.65
2023-01-10T18:12:35.429Z,52.45
2023-01-10T18:15:01.912Z,52.28
2023-01-10T18:17:28.301Z,52.28
2023-01-10T18:19:54.664Z,52.74
2023-01-10T18:22:39.513Z,52.62
2023-01-10T18:25:07.211Z,53.13
2023-01-10T18:27:33.979Z,52.73
2023-01-10T18:30:00.691Z,52.29
2023-01-10T18:32:27.037Z,51.63
2023-01-10T18:34:53.455Z,51.04
2023-01-10T18:37:19.780Z,52.54
2023-01-10T18:39:47.240Z,52.64
2023-01-10T18:42:13.614Z,52.59
2023-01-10T18:44:40.063Z,52.54
2023-01-10T18:47:06.410Z,52.57
2023-01-10T18:49:32.733Z,53.01
2023-01-10T18:51:59.226Z,52.68
2023-01-10T18:54:27.893Z,52.49
2023-01-10T18:56:55.808Z,52.61
2023-01-10T18:59:22.371Z,52.81
2023-01-10T19:01:48.881Z,52.90
2023-01-10T19:04:15.317Z,52.92
2023-01-10T19:06:44.149Z,52.85
2023-01-10T19:09:10.474Z,52.96
2023-01-10T19:11:36.810Z,53.13
2023-01-10T19:14:03.139Z,52.93
2023-01-10T19:16:31.851Z,53.47
2023-01-10T19:18:58.898Z,52.97
2023-01-10T19:21:25.531Z,53.46
2023-01-10T19:23:52.303Z,54.03
2023-01-10T19:26:18.674Z,54.07
2023-01-10T19:28:45.357Z,54.21
2023-01-10T19:31:15.923Z,54.54
2023-01-10T19:33:43.964Z,54.64
2023-01-10T19:36:10.430Z,54.37
2023-01-10T19:38:36.750Z,54.24
2023-01-10T19:41:03.180Z,54.08
2023-01-10T19:43:29.508Z,54.20
2023-01-10T19:45:55.922Z,54.21
2023-01-10T19:48:22.320Z,54.21
2023-01-10T19:50:48.687Z,54.17
2023-01-10T19:53:15.148Z,54.20
2023-01-10T19:55:41.490Z,54.43
2023-01-10T19:58:07.812Z,54.35
2023-01-10T20:00:34.147Z,54.66
2023-01-10T20:03:00.651Z,54.53
2023-01-10T20:05:27.377Z,54.30
2023-01-10T20:07:53.779Z,54.66
2023-01-10T20:10:20.152Z,54.61
2023-01-10T20:12:46.527Z,54.47
2023-01-10T20:15:12.896Z,54.41
2023-01-10T20:17:40.453Z,54.38
2023-01-10T20:20:07.019Z,54.35
2023-01-10T20:22:33.356Z,54.57
2023-01-10T20:25:00.696Z,54.57
2023-01-10T20:27:27.743Z,54.79
2023-01-10T20:29:54.113Z,54.48
2023-01-10T20:32:20.511Z,54.35
2023-01-10T20:34:47.349Z,54.54
2023-01-10T20:37:14.421Z,54.55
2023-01-10T20:39:40.814Z,54.58
2023-01-10T20:42:07.139Z,54.61
2023-01-10T20:44:33.506Z,54.44
2023-01-10T20:46:59.828Z,54.54
2023-01-10T20:49:26.150Z,54.43
2023-01-10T20:51:54.320Z,54.46
2023-01-10T20:54:20.810Z,54.62
2023-01-10T20:56:47.187Z,54.64
2023-01-10T20:59:13.514Z,54.61
2023-01-10T21:01:39.931Z,54.69
2023-01-10T21:04:06.334Z,54.74
2023-01-10T21:06:32.812Z,54.54
2023-01-10T21:09:00.355Z,54.82
2023-01-10T21:11:26.747Z,54.75
2023-01-10T21:13:53.088Z,55.05
2023-01-10T21:16:20.136Z,55.10
2023-01-10T21:18:46.597Z,55.11
2023-01-10T21:21:13.495Z,54.88
2023-01-10T21:23:39.941Z,55.07
2023-01-10T21:26:06.950Z,54.90
2023-01-10T21:28:33.832Z,54.69
2023-01-10T21:31:00.283Z,54.87
2023-01-10T21:33:26.719Z,54.99
2023-01-10T21:35:53.522Z,55.00
2023-01-10T21:38:20.005Z,54.83
2023-01-10T21:40:46.333Z,54.86
2023-01-10T21:43:12.652Z,55.42
2023-01-10T21:45:38.983Z,55.15
2023-01-10T21:48:05.303Z,55.20
2023-01-10T21:50:33.596Z,55.13
2023-01-10T21:53:00.403Z,55.20
2023-01-10T21:55:26.769Z,55.20
2023-01-10T21:57:53.093Z,55.22
2023-01-10T22:00:19.651Z,55.07
2023-01-10T22:02:47.551Z,54.98
2023-01-10T22:05:13.888Z,55.12
2023-01-10T22:07:40.279Z,55.13
2023-01-10T22:10:07.478Z,55.06
2023-01-10T22:12:33.841Z,55.01
2023-01-10T22:15:00.160Z,55.03
2023-01-10T22:17:26.496Z,54.95
2023-01-10T22:19:52.832Z,55.00
2023-01-10T22:22:19.159Z,54.84
2023-01-10T22:24:47.470Z,55.14
2023-01-10T22:27:14.424Z,54.97
2023-01-10T22:29:40.860Z,54.96
2023-01-10T22:32:07.188Z,54.74
2023-01-10T22:34:33.499Z,54.75
2023-01-10T22:36:59.821Z,54.78
2023-01-10T22:39:26.135Z,54.77
2023-01-10T22:41:55.268Z,54.82
2023-01-10T22:44:22.368Z,54.78
2023-01-10T22:46:49.602Z,54.59
2023-01-10T22:49:15.929Z,54.58
2023-01-10T22:51:42.299Z,54.82
2023-01-10T22:54:09.147Z,54.56
2023-01-10T22:56:37.228Z,54.65
2023-01-10T22:59:03.547Z,54.57
2023-01-10T23:01:29.875Z,54.52
2023-01-10T23:03:56.221Z,54.45
2023-01-10T23:06:22.654Z,54.63
2023-01-10T23:08:49.042Z,54.29
2023-01-10T23:11:15.775Z,54.50
2023-01-10T23:13:42.112Z,54.26
2023-01-10T23:16:09.317Z,54.57
2023-01-10T23:18:35.752Z,54.58
2023-01-10T23:21:02.098Z,54.34
2023-01-10T23:23:28.415Z,54.20
2023-01-10T23:26:01.600Z,54.13
2023-01-10T23:28:39.988Z,54.46
2023-01-10T23:31:06.473Z,54.34
2023-01-10T23:33:32.937Z,54.30
2023-01-10T23:35:59.430Z,54.26
2023-01-10T23:38:25.981Z,54.20
2023-01-10T23:40:52.296Z,54.23
2023-01-10T23:43:18.628Z,54.13
2023-01-10T23:45:44.979Z,54.23
2023-01-10T23:48:11.483Z,54.36
2023-01-10T23:50:37.867Z,54.41
2023-01-10T23:53:04.191Z,54.09
2023-01-10T23:55:30.735Z,54.40
2023-01-10T23:57:57.083Z,54.85
